Time;durP1;ratioP1;P1;durP2;ratioP2;P2;SDS_P1;SDS_P2;PMS_P1;PMS_P2;Temp;Humidity;BMP_temperature;BMP_pressure;BME280_temperature;BME280_humidity;BME280_pressure;Samples;Min_cycle;Max_cycle;Signal;HPM_P1;HPM_P2
2022/10/10 10:03:17;;;;;;;5.83;3.93;;;;;;;;;;4960356;28;20470;-93
2022/10/10 10:16:22;;;;;;;4.27;3.90;;;;;;;;;;4981723;28;20478;-93
2022/10/10 10:19:27;;;;;;;6.10;4.10;;;;;;;;;;4970904;28;20533;-92
2022/10/10 10:22:34;;;;;;;4.67;3.87;;;;;;;;;;4983060;28;20541;-93
2022/10/10 10:25:41;;;;;;;5.50;4.00;;;;;;;;;;4992897;28;20557;-92
2022/10/10 10:28:46;;;;;;;3.73;3.10;;;;;;;;;;4981391;28;20450;-93
2022/10/10 10:31:52;;;;;;;6.23;4.07;;;;;;;;;;4982785;28;21527;-92
2022/10/10 10:35:06;;;;;;;4.80;3.50;;;;;;;;;;4975827;28;20450;-92
2022/10/10 10:38:25;;;;;;;3.83;3.10;;;;;;;;;;4982228;28;20462;-92
2022/10/10 10:48:09;;;;;;;4.47;3.53;;;;;;;;;;4978531;28;20450;-92
2022/10/10 11:08:50;;;;;;;3.77;3.20;;;;;;;;;;4983268;28;20470;-91
2022/10/10 11:26:01;;;;;;;3.33;3.00;;;;;;;;;;4982834;28;20458;-92
2022/10/10 11:38:43;;;;;;;4.80;3.33;;;;;;;;;;4977619;28;20465;-92
2022/10/10 11:45:18;;;;;;;3.97;2.67;;;;;;;;;;4976791;28;20458;-92
2022/10/10 11:48:18;;;;;;;3.70;3.17;;;;;;;;;;4985346;28;20521;-94
2022/10/10 11:51:12;;;;;;;3.73;2.77;;;;;;;;;;4982731;28;20600;-92
2022/10/10 11:57:29;;;;;;;2.93;2.63;;;;;;;;;;4983862;28;20478;-93
2022/10/10 12:00:47;;;;;;;3.57;2.70;;;;;;;;;;4981207;28;20470;-92
2022/10/10 12:04:00;;;;;;;3.77;2.63;;;;;;;;;;4981471;28;20445;-93
2022/10/10 12:10:24;;;;;;;2.77;2.50;;;;;;;;;;4967344;28;20470;-93
2022/10/10 12:13:38;;;;;;;4.07;3.07;;;;;;;;;;4980934;28;20597;-93
2022/10/10 12:16:48;;;;;;;4.43;2.50;;;;;;;;;;4983207;28;20478;-93
2022/10/10 12:23:10;;;;;;;4.47;2.93;;;;;;;;;;4991643;23;20522;-92
2022/10/10 12:26:02;;;;;;;4.53;2.97;;;;;;;;;;4973492;28;20518;-94
2022/10/10 12:29:09;;;;;;;7.33;2.77;;;;;;;;;;4992267;28;20450;-93
2022/10/10 12:32:10;;;;;;;4.97;2.87;;;;;;;;;;4986354;28;20526;-94
2022/10/10 12:35:01;;;;;;;3.83;3.53;;;;;;;;;;4989745;28;20447;-95
2022/10/10 12:38:06;;;;;;;6.30;3.50;;;;;;;;;;4991520;28;20476;-94
2022/10/10 12:41:08;;;;;;;4.30;2.70;;;;;;;;;;4982272;28;20479;-93
2022/10/10 12:44:15;;;;;;;3.17;2.60;;;;;;;;;;4992897;28;20446;-93
2022/10/10 12:47:29;;;;;;;3.87;3.30;;;;;;;;;;4982465;28;20472;-94
2022/10/10 12:50:39;;;;;;;3.80;2.60;;;;;;;;;;4987895;28;20468;-93
2022/10/10 12:53:30;;;;;;;3.30;2.70;;;;;;;;;;4991794;28;20489;-93
2022/10/10 12:56:33;;;;;;;3.37;2.93;;;;;;;;;;4996711;28;20462;-92
2022/10/10 12:59:24;;;;;;;3.10;2.70;;;;;;;;;;4989299;28;20453;-94
2022/10/10 13:02:17;;;;;;;3.23;2.57;;;;;;;;;;4987419;28;20866;-92
2022/10/10 13:05:08;;;;;;;5.30;3.50;;;;;;;;;;4994849;28;20450;-94
2022/10/10 13:08:01;;;;;;;3.77;2.40;;;;;;;;;;4992961;28;20450;-93
2022/10/10 13:11:01;;;;;;;3.93;2.97;;;;;;;;;;4999553;28;20470;-94
2022/10/10 13:14:09;;;;;;;3.60;3.30;;;;;;;;;;4998273;28;20438;-94
2022/10/10 13:17:23;;;;;;;3.70;2.30;;;;;;;;;;4995843;28;20466;-95
2022/10/10 13:20:27;;;;;;;3.23;2.80;;;;;;;;;;4996145;28;20438;-94
2022/10/10 13:23:18;;;;;;;3.80;2.93;;;;;;;;;;4993986;28;20466;-94
2022/10/10 13:26:22;;;;;;;4.47;2.43;;;;;;;;;;4992509;28;20451;-93
2022/10/10 13:29:19;;;;;;;5.03;3.27;;;;;;;;;;4991479;28;20450;-94
2022/10/10 13:32:14;;;;;;;4.73;3.07;;;;;;;;;;4989564;28;20577;-94
2022/10/10 13:35:05;;;;;;;3.07;2.67;;;;;;;;;;4989311;28;20494;-93
2022/10/10 13:37:56;;;;;;;5.90;3.13;;;;;;;;;;4992315;28;20466;-93
2022/10/10 13:40:45;;;;;;;4.00;3.60;;;;;;;;;;4988870;28;20524;-91
2022/10/10 13:43:35;;;;;;;4.90;4.00;;;;;;;;;;4993112;28;20478;-94
2022/10/10 13:46:31;;;;;;;6.50;3.57;;;;;;;;;;4993784;28;20458;-92
2022/10/10 13:49:24;;;;;;;3.90;3.50;;;;;;;;;;4994464;28;20509;-92
2022/10/10 13:52:21;;;;;;;3.77;3.10;;;;;;;;;;4988105;28;20490;-92
2022/10/10 13:55:23;;;;;;;5.10;3.37;;;;;;;;;;5000021;28;20457;-92
2022/10/10 13:58:13;;;;;;;5.30;3.37;;;;;;;;;;4989398;28;20453;-92
2022/10/10 14:01:03;;;;;;;5.60;3.83;;;;;;;;;;4978121;28;20858;-93
2022/10/10 14:03:57;;;;;;;4.83;3.43;;;;;;;;;;4986177;28;20482;-93
2022/10/10 14:06:51;;;;;;;5.30;3.73;;;;;;;;;;4988910;28;20493;-91
2022/10/10 14:09:42;;;;;;;3.87;2.93;;;;;;;;;;4991071;28;20461;-92
2022/10/10 14:12:32;;;;;;;7.13;4.10;;;;;;;;;;4986377;28;20493;-92
2022/10/10 14:15:32;;;;;;;4.90;3.90;;;;;;;;;;4975906;28;20458;-92
2022/10/10 14:18:21;;;;;;;3.93;3.00;;;;;;;;;;4978625;28;20469;-91
2022/10/10 14:21:17;;;;;;;3.20;2.90;;;;;;;;;;4984871;28;20473;-93
2022/10/10 14:24:15;;;;;;;4.77;3.00;;;;;;;;;;4983239;28;20456;-92
2022/10/10 14:27:10;;;;;;;5.30;3.40;;;;;;;;;;4981373;28;20823;-93
2022/10/10 14:30:00;;;;;;;5.67;3.27;;;;;;;;;;4983992;28;20454;-93
2022/10/10 14:32:49;;;;;;;3.93;3.63;;;;;;;;;;4977630;28;20493;-92
2022/10/10 14:35:39;;;;;;;4.00;3.27;;;;;;;;;;4982765;28;20457;-92
2022/10/10 14:38:42;;;;;;;4.67;3.40;;;;;;;;;;4978893;28;20486;-91
2022/10/10 14:41:36;;;;;;;5.60;3.77;;;;;;;;;;4982090;28;20873;-91
2022/10/10 14:44:25;;;;;;;6.30;3.60;;;;;;;;;;4985598;28;20469;-92
2022/10/10 14:47:15;;;;;;;5.73;3.40;;;;;;;;;;4988407;28;20458;-92
2022/10/10 14:50:09;;;;;;;5.90;3.80;;;;;;;;;;4986837;28;20505;-92
2022/10/10 14:52:59;;;;;;;5.80;3.47;;;;;;;;;;4986534;28;20482;-93
2022/10/10 14:55:50;;;;;;;3.83;3.50;;;;;;;;;;4986954;28;20457;-91
2022/10/10 14:58:54;;;;;;;3.70;3.40;;;;;;;;;;4994755;28;20453;-91
2022/10/10 15:01:43;;;;;;;5.23;3.60;;;;;;;;;;4997980;28;20517;-91
2022/10/10 15:04:33;;;;;;;5.03;3.70;;;;;;;;;;4986317;28;20461;-92
2022/10/10 15:07:23;;;;;;;5.77;3.30;;;;;;;;;;4981289;28;20454;-92
2022/10/10 15:10:14;;;;;;;4.47;3.60;;;;;;;;;;4979815;28;20450;-92
2022/10/10 15:13:23;;;;;;;4.20;3.60;;;;;;;;;;4983733;28;20489;-92
2022/10/10 15:16:14;;;;;;;5.33;3.83;;;;;;;;;;4988176;28;20515;-92
2022/10/10 15:19:04;;;;;;;5.30;3.50;;;;;;;;;;4983312;28;20439;-92
2022/10/10 15:21:55;;;;;;;4.97;3.60;;;;;;;;;;4986959;28;20489;-93
2022/10/10 15:24:46;;;;;;;4.20;3.80;;;;;;;;;;4994105;28;20454;-91
2022/10/10 15:27:37;;;;;;;4.33;4.03;;;;;;;;;;4986052;28;20467;-92
2022/10/10 15:30:28;;;;;;;5.33;3.43;;;;;;;;;;4983009;28;20546;-92
2022/10/10 15:33:20;;;;;;;4.93;4.07;;;;;;;;;;4986747;28;20470;-92
2022/10/10 15:36:09;;;;;;;4.60;3.40;;;;;;;;;;4991390;28;20462;-93
2022/10/10 15:39:06;;;;;;;3.63;3.33;;;;;;;;;;4991047;28;20446;-93
2022/10/10 15:41:55;;;;;;;4.50;4.03;;;;;;;;;;4989973;28;20457;-92
2022/10/10 15:44:46;;;;;;;4.63;3.30;;;;;;;;;;4988347;28;20430;-93
2022/10/10 15:47:35;;;;;;;7.37;3.60;;;;;;;;;;4991665;28;20459;-92
2022/10/10 15:50:28;;;;;;;3.70;3.30;;;;;;;;;;4984535;28;20455;-91
2022/10/10 15:53:17;;;;;;;5.17;3.13;;;;;;;;;;4990581;28;20554;-92
2022/10/10 15:56:09;;;;;;;4.60;3.97;;;;;;;;;;4991888;28;20493;-91
2022/10/10 15:59:00;;;;;;;6.43;3.70;;;;;;;;;;4991536;28;20458;-91
2022/10/10 16:01:49;;;;;;;4.00;3.60;;;;;;;;;;4988659;28;20490;-93
2022/10/10 16:04:46;;;;;;;6.00;3.60;;;;;;;;;;4983423;28;20443;-93
2022/10/10 16:07:40;;;;;;;5.83;3.90;;;;;;;;;;4996258;28;20517;-93
2022/10/10 16:10:39;;;;;;;5.27;3.97;;;;;;;;;;4987920;28;20492;-92
2022/10/10 16:13:32;;;;;;;6.53;4.00;;;;;;;;;;4993044;28;20545;-92
2022/10/10 16:16:35;;;;;;;4.83;3.90;;;;;;;;;;4981487;28;20474;-92
2022/10/10 16:19:25;;;;;;;6.23;4.20;;;;;;;;;;4991001;28;20493;-92
2022/10/10 16:22:27;;;;;;;6.70;4.10;;;;;;;;;;4981604;28;20482;-93
2022/10/10 16:25:21;;;;;;;5.63;4.50;;;;;;;;;;4994976;28;20576;-93
2022/10/10 16:28:25;;;;;;;5.20;4.70;;;;;;;;;;4991895;28;20462;-93
2022/10/10 16:31:25;;;;;;;5.17;4.27;;;;;;;;;;4980276;28;20482;-92
2022/10/10 16:34:16;;;;;;;4.50;4.10;;;;;;;;;;4987624;28;20496;-92
2022/10/10 16:37:08;;;;;;;5.23;4.13;;;;;;;;;;4991009;28;20449;-93
2022/10/10 16:39:59;;;;;;;6.13;4.83;;;;;;;;;;4983886;28;20943;-93
2022/10/10 16:42:55;;;;;;;8.13;5.23;;;;;;;;;;4985854;28;20465;-92
2022/10/10 16:45:45;;;;;;;8.00;5.63;;;;;;;;;;4996220;28;20466;-92
2022/10/10 16:48:35;;;;;;;6.20;5.60;;;;;;;;;;4994297;28;20505;-92
2022/10/10 16:54:40;;;;;;;6.43;5.80;;;;;;;;;;4991963;28;20489;-92
2022/10/10 17:00:50;;;;;;;8.37;6.43;;;;;;;;;;4993139;28;20433;-94
2022/10/10 17:03:56;;;;;;;6.80;6.20;;;;;;;;;;4992793;28;20444;-94
2022/10/10 17:10:04;;;;;;;9.03;6.23;;;;;;;;;;4985515;28;20959;-92
2022/10/10 17:12:54;;;;;;;8.40;6.07;;;;;;;;;;4983998;28;20481;-93
2022/10/10 17:15:45;;;;;;;8.30;5.90;;;;;;;;;;4988507;28;20448;-94
2022/10/10 17:21:55;;;;;;;8.40;6.53;;;;;;;;;;5133640;27;20569;-92
2022/10/10 17:25:07;;;;;;;7.20;6.50;;;;;;;;;;5117620;28;20469;-94
2022/10/10 17:27:56;;;;;;;8.30;6.13;;;;;;;;;;5119425;28;20441;-93
2022/10/10 17:30:50;;;;;;;7.17;6.47;;;;;;;;;;5127463;28;20455;-93
2022/10/10 17:33:40;;;;;;;7.43;6.53;;;;;;;;;;5129674;28;20451;-92
2022/10/10 17:36:35;;;;;;;5.63;3.40;;;;;;;;;;5129451;28;20444;-94
2022/10/10 17:39:25;;;;;;;3.30;2.27;;;;;;;;;;5127393;28;20898;-94
2022/10/10 17:42:34;;;;;;;4.30;1.93;;;;;;;;;;5120476;28;20460;-94
2022/10/10 17:45:32;;;;;;;3.40;2.23;;;;;;;;;;5119134;28;20464;-93
2022/10/10 17:51:52;;;;;;;5.03;1.87;;;;;;;;;;5142057;27;20478;-93
2022/10/10 17:54:43;;;;;;;7.50;1.60;;;;;;;;;;5129157;28;20456;-93
2022/10/10 17:57:48;;;;;;;3.17;1.60;;;;;;;;;;5126378;28;20448;-94
2022/10/10 18:04:05;;;;;;;4.70;1.67;;;;;;;;;;5123979;28;20460;-92
2022/10/10 18:06:54;;;;;;;6.10;1.70;;;;;;;;;;5134836;27;20512;-93
2022/10/10 18:09:51;;;;;;;8.23;1.67;;;;;;;;;;5130631;28;20860;-92
2022/10/10 18:12:51;;;;;;;3.53;1.57;;;;;;;;;;5122799;28;20474;-93
2022/10/10 18:15:41;;;;;;;5.63;2.03;;;;;;;;;;5119363;28;20436;-93
2022/10/10 18:18:53;;;;;;;3.83;1.60;;;;;;;;;;5118970;28;20441;-92
2022/10/10 18:21:49;;;;;;;6.30;2.07;;;;;;;;;;5118524;28;20473;-95
2022/10/10 19:01:29;;;;;;;4.07;2.10;;;;;;;;;;5067188;28;20535;-94
2022/10/10 19:11:47;;;;;;;4.03;2.60;;;;;;;;;;5061718;28;20512;-94
2022/10/10 19:36:24;;;;;;;4.50;2.27;;;;;;;;;;5091565;28;20437;-94
2022/10/10 19:39:37;;;;;;;4.43;2.33;;;;;;;;;;5104588;28;20460;-93
2022/10/10 19:49:17;;;;;;;4.90;2.47;;;;;;;;;;5099852;28;20520;-93
2022/10/10 20:27:02;;;;;;;7.20;2.93;;;;;;;;;;5082512;28;20467;-95
2022/10/10 21:11:30;;;;;;;5.43;3.10;;;;;;;;;;5041258;28;20871;-95
